createdAt,value
2017-10-07T00:00:41.875Z,11.41
2017-10-07T00:01:42.600Z,11.41
2017-10-07T00:02:43.324Z,11.37
2017-10-07T00:03:44.037Z,11.40
2017-10-07T00:04:44.749Z,11.43
2017-10-07T00:05:45.459Z,11.44
2017-10-07T00:06:46.185Z,11.40
2017-10-07T00:07:46.896Z,11.48
2017-10-07T00:08:47.620Z,11.47
2017-10-07T00:09:48.335Z,11.41
2017-10-07T00:10:49.061Z,11.33
2017-10-07T00:11:49.773Z,11.36
2017-10-07T00:12:50.483Z,11.32
2017-10-07T00:13:51.192Z,11.33
2017-10-07T00:14:51.904Z,11.30
2017-10-07T00:15:52.614Z,11.35
2017-10-07T00:16:53.325Z,11.26
2017-10-07T00:17:54.035Z,11.44
2017-10-07T00:18:54.745Z,11.35
2017-10-07T00:19:55.458Z,11.30
2017-10-07T00:20:56.184Z,11.40
2017-10-07T00:21:56.895Z,11.29
2017-10-07T00:22:57.603Z,11.33
2017-10-07T00:23:58.315Z,11.35
2017-10-07T00:24:59.025Z,11.30
2017-10-07T00:25:59.735Z,11.29
2017-10-07T00:27:00.457Z,11.27
2017-10-07T00:28:01.168Z,11.23
2017-10-07T00:29:01.882Z,11.26
2017-10-07T00:30:02.594Z,11.27
2017-10-07T00:31:03.304Z,11.30
2017-10-07T00:32:04.016Z,11.36
2017-10-07T00:33:04.727Z,11.29
2017-10-07T00:34:05.438Z,11.23
2017-10-07T00:35:06.148Z,11.27
2017-10-07T00:36:06.873Z,11.29
2017-10-07T00:37:07.585Z,11.27
2017-10-07T00:38:08.295Z,11.26
2017-10-07T00:39:09.003Z,11.27
2017-10-07T00:40:09.732Z,11.23
2017-10-07T00:41:10.442Z,11.30
2017-10-07T00:42:11.151Z,11.29
2017-10-07T00:43:11.875Z,11.29
2017-10-07T00:44:12.601Z,11.27
2017-10-07T00:45:13.314Z,11.27
2017-10-07T00:46:14.025Z,11.18
2017-10-07T00:47:14.732Z,11.23
2017-10-07T00:48:15.460Z,11.29
2017-10-07T00:49:16.167Z,11.30
2017-10-07T00:50:16.878Z,11.23
2017-10-07T00:51:17.587Z,11.15
2017-10-07T00:52:18.298Z,11.29
2017-10-07T00:53:19.026Z,11.22
2017-10-07T00:54:19.738Z,11.22
2017-10-07T00:55:20.448Z,11.26
2017-10-07T00:56:21.156Z,11.17
2017-10-07T00:57:21.868Z,11.17
2017-10-07T00:58:22.588Z,11.15
2017-10-07T00:59:23.298Z,11.08
2017-10-07T01:00:24.009Z,11.14
2017-10-07T01:01:24.719Z,11.07
2017-10-07T01:02:25.428Z,11.15
2017-10-07T01:03:26.138Z,11.07
2017-10-07T01:04:26.847Z,11.14
2017-10-07T01:05:27.573Z,11.10
2017-10-07T01:06:28.285Z,11.11
2017-10-07T01:07:29.010Z,11.07
2017-10-07T01:08:29.721Z,11.14
2017-10-07T01:09:30.432Z,11.11
2017-10-07T01:10:31.165Z,11.04
2017-10-07T01:11:31.870Z,11.08
2017-10-07T01:12:32.583Z,10.97
2017-10-07T01:13:33.305Z,10.99
2017-10-07T01:14:34.032Z,10.90
2017-10-07T01:15:34.744Z,10.89
2017-10-07T01:16:35.455Z,10.90
2017-10-07T01:17:36.165Z,10.86
2017-10-07T01:18:36.875Z,10.89
2017-10-07T01:19:37.599Z,10.87
2017-10-07T01:20:38.310Z,10.84
2017-10-07T01:21:39.020Z,10.79
2017-10-07T01:22:39.734Z,10.79
2017-10-07T01:23:40.442Z,10.72
2017-10-07T01:24:41.151Z,10.82
2017-10-07T01:25:41.865Z,10.72
2017-10-07T01:26:42.569Z,10.76
2017-10-07T01:27:43.279Z,10.82
2017-10-07T01:28:44.005Z,10.82
2017-10-07T01:29:44.716Z,10.72
2017-10-07T01:30:45.439Z,10.74
2017-10-07T01:31:46.151Z,10.71
2017-10-07T01:32:46.860Z,10.75
2017-10-07T01:33:47.569Z,10.69
2017-10-07T01:34:48.296Z,10.78
2017-10-07T01:35:49.005Z,10.71
2017-10-07T01:36:49.716Z,10.76
2017-10-07T01:37:50.426Z,10.75
2017-10-07T01:38:51.137Z,10.71
2017-10-07T01:39:51.849Z,10.63
2017-10-07T01:40:52.561Z,10.79
2017-10-07T01:41:53.269Z,10.64
2017-10-07T01:42:54.000Z,10.71
2017-10-07T01:43:54.722Z,10.68
2017-10-07T01:44:55.432Z,10.74
2017-10-07T01:45:56.144Z,10.68
2017-10-07T01:46:56.857Z,10.67
2017-10-07T01:47:57.567Z,10.68
2017-10-07T01:48:58.279Z,10.64
2017-10-07T01:49:58.990Z,10.72
2017-10-07T01:50:59.701Z,10.67
2017-10-07T01:52:00.412Z,10.71
2017-10-07T01:53:01.125Z,10.63
2017-10-07T01:54:01.838Z,10.63
2017-10-07T01:55:02.547Z,10.54
2017-10-07T01:56:03.272Z,10.56
2017-10-07T01:57:03.984Z,10.57
2017-10-07T01:58:04.712Z,10.54
2017-10-07T01:59:05.423Z,10.54
2017-10-07T02:00:06.135Z,10.60
2017-10-07T02:01:06.846Z,10.67
2017-10-07T02:02:07.555Z,10.63
2017-10-07T02:03:08.279Z,10.53
2017-10-07T02:04:08.987Z,10.60
2017-10-07T02:05:09.697Z,10.59
2017-10-07T02:06:10.408Z,10.60
2017-10-07T02:07:11.117Z,10.56
2017-10-07T02:08:11.827Z,10.54
2017-10-07T02:09:12.552Z,10.64
2017-10-07T02:10:13.263Z,10.60
2017-10-07T02:11:13.987Z,10.57
2017-10-07T02:12:14.696Z,10.67
2017-10-07T02:13:15.407Z,10.63
2017-10-07T02:14:16.118Z,10.67
2017-10-07T02:15:16.842Z,10.60
2017-10-07T02:16:17.550Z,10.59
2017-10-07T02:17:18.260Z,10.67
2017-10-07T02:18:18.982Z,10.67
2017-10-07T02:19:19.694Z,10.64
2017-10-07T02:20:20.403Z,10.68
2017-10-07T02:21:21.114Z,10.71
2017-10-07T02:22:21.824Z,10.68
2017-10-07T02:23:22.535Z,10.61
2017-10-07T02:24:23.246Z,10.68
2017-10-07T02:25:23.958Z,10.69
2017-10-07T02:26:24.671Z,10.71
2017-10-07T02:27:25.396Z,10.64
2017-10-07T02:28:26.123Z,10.68
2017-10-07T02:29:26.830Z,10.72
2017-10-07T02:30:27.542Z,10.67
2017-10-07T02:31:28.256Z,10.68
2017-10-07T02:32:28.967Z,10.60
2017-10-07T02:33:29.692Z,10.67
2017-10-07T02:34:30.402Z,10.61
2017-10-07T02:35:31.127Z,10.69
2017-10-07T02:36:31.840Z,10.72
2017-10-07T02:37:32.565Z,10.69
2017-10-07T02:38:33.276Z,10.69
2017-10-07T02:39:33.990Z,10.64
2017-10-07T02:40:34.709Z,10.63
2017-10-07T02:41:35.413Z,10.71
2017-10-07T02:42:36.123Z,10.71
2017-10-07T02:43:36.848Z,10.68
2017-10-07T02:44:37.558Z,10.64
2017-10-07T02:45:38.269Z,10.67
2017-10-07T02:46:38.978Z,10.68
2017-10-07T02:47:39.689Z,10.64
2017-10-07T02:48:40.398Z,10.69
2017-10-07T02:49:41.111Z,10.61
2017-10-07T02:50:41.827Z,10.61
2017-10-07T02:51:42.530Z,10.64
2017-10-07T02:52:43.241Z,10.64
2017-10-07T02:53:43.968Z,10.64
2017-10-07T02:54:44.681Z,10.67
2017-10-07T02:55:45.390Z,10.63
2017-10-07T02:56:46.115Z,10.71
2017-10-07T02:57:46.826Z,10.69
2017-10-07T02:58:47.543Z,10.68
2017-10-07T02:59:48.247Z,10.64
2017-10-07T03:00:48.971Z,10.68
2017-10-07T03:01:49.695Z,10.60
2017-10-07T03:02:50.407Z,10.74
2017-10-07T03:03:51.117Z,10.69
2017-10-07T03:04:51.830Z,10.74
2017-10-07T03:05:52.556Z,10.76
2017-10-07T03:06:53.266Z,10.75
2017-10-07T03:07:53.976Z,10.75
2017-10-07T03:08:54.687Z,10.78
2017-10-07T03:09:55.396Z,10.75
2017-10-07T03:10:56.120Z,10.74
2017-10-07T03:11:56.830Z,10.68
2017-10-07T03:12:57.558Z,10.72
2017-10-07T03:13:58.268Z,10.71
2017-10-07T03:14:58.994Z,10.67
2017-10-07T03:15:59.704Z,10.78
2017-10-07T03:17:00.416Z,10.81
2017-10-07T03:18:01.126Z,10.67
2017-10-07T03:19:01.837Z,10.69
2017-10-07T03:20:02.547Z,10.69
2017-10-07T03:21:03.264Z,10.76
2017-10-07T03:22:03.970Z,10.69
2017-10-07T03:23:04.682Z,10.72
2017-10-07T03:24:05.392Z,10.71
2017-10-07T03:25:06.105Z,10.67
2017-10-07T03:26:06.814Z,10.63
2017-10-07T03:27:07.541Z,10.71
2017-10-07T03:28:08.266Z,10.72
2017-10-07T03:29:08.977Z,10.61
2017-10-07T03:30:09.703Z,10.61
2017-10-07T03:31:10.413Z,10.72
2017-10-07T03:32:11.122Z,10.67
2017-10-07T03:33:11.831Z,10.68
2017-10-07T03:34:12.541Z,10.64
2017-10-07T03:35:13.251Z,10.64
2017-10-07T03:36:13.960Z,10.68
2017-10-07T03:37:14.673Z,10.63
2017-10-07T03:38:15.395Z,10.67
2017-10-07T03:39:16.118Z,10.71
2017-10-07T03:40:16.830Z,10.64
2017-10-07T03:41:17.541Z,10.67
2017-10-07T03:42:18.251Z,10.67
2017-10-07T03:43:18.959Z,10.61
2017-10-07T03:44:19.670Z,10.54
2017-10-07T03:45:20.379Z,10.60
2017-10-07T03:46:21.104Z,10.57
2017-10-07T03:47:21.827Z,10.60
2017-10-07T03:48:22.538Z,10.57
2017-10-07T03:49:23.250Z,10.54
2017-10-07T03:50:23.981Z,10.59
2017-10-07T03:51:24.701Z,10.49
2017-10-07T03:52:25.426Z,10.48
2017-10-07T03:53:26.136Z,10.49
2017-10-07T03:54:26.845Z,10.51
2017-10-07T03:55:27.557Z,10.44
2017-10-07T03:56:28.270Z,10.46
2017-10-07T03:57:28.979Z,10.49
2017-10-07T03:58:29.691Z,10.48
2017-10-07T03:59:30.400Z,10.46
2017-10-07T04:00:31.124Z,10.44
2017-10-07T04:01:31.834Z,10.42
2017-10-07T04:02:32.544Z,10.40
2017-10-07T04:03:33.269Z,10.40
2017-10-07T04:04:33.981Z,10.40
2017-10-07T04:05:34.691Z,10.37
2017-10-07T04:06:35.401Z,10.38
2017-10-07T04:07:36.111Z,10.35
2017-10-07T04:08:36.819Z,10.37
2017-10-07T04:09:37.529Z,10.34
2017-10-07T04:10:38.253Z,10.35
2017-10-07T04:11:38.963Z,10.33
2017-10-07T04:12:39.675Z,10.35
2017-10-07T04:13:40.384Z,10.34
2017-10-07T04:14:41.094Z,10.33
2017-10-07T04:15:41.819Z,10.30
2017-10-07T04:16:42.546Z,10.28
2017-10-07T04:17:43.253Z,10.20
2017-10-07T04:18:43.970Z,10.22
2017-10-07T04:19:44.677Z,10.17
2017-10-07T04:20:45.386Z,10.15
2017-10-07T04:21:46.099Z,10.16
2017-10-07T04:22:46.824Z,10.10
2017-10-07T04:23:47.534Z,10.15
2017-10-07T04:24:48.245Z,10.15
2017-10-07T04:25:48.957Z,10.15
2017-10-07T04:26:49.670Z,10.16
2017-10-07T04:27:50.380Z,10.07
2017-10-07T04:28:51.090Z,10.12
2017-10-07T04:29:51.799Z,10.17
2017-10-07T04:30:52.524Z,10.12
2017-10-07T04:31:53.232Z,10.13
2017-10-07T04:32:53.942Z,10.17
2017-10-07T04:33:54.653Z,10.15
2017-10-07T04:34:55.362Z,10.16
2017-10-07T04:35:56.071Z,10.15
2017-10-07T04:36:56.795Z,10.12
2017-10-07T04:37:57.504Z,10.16
2017-10-07T04:38:58.214Z,10.16
2017-10-07T04:39:58.927Z,10.15
2017-10-07T04:40:59.636Z,10.07
2017-10-07T04:42:00.347Z,10.13
2017-10-07T04:43:01.060Z,10.16
2017-10-07T04:44:01.776Z,10.15
2017-10-07T04:45:02.482Z,10.09
2017-10-07T04:46:03.194Z,10.13
2017-10-07T04:47:03.901Z,10.15
2017-10-07T04:48:04.613Z,10.22
2017-10-07T04:49:05.321Z,10.16
2017-10-07T04:50:06.033Z,10.10
2017-10-07T04:51:06.756Z,10.16
2017-10-07T04:52:07.468Z,10.12
2017-10-07T04:53:08.180Z,10.16
2017-10-07T04:54:08.892Z,10.16
2017-10-07T04:55:09.613Z,10.12
2017-10-07T04:56:10.325Z,10.13
2017-10-07T04:57:11.035Z,10.12
2017-10-07T04:58:11.746Z,10.15
2017-10-07T04:59:12.470Z,10.09
2017-10-07T05:00:13.182Z,10.09
2017-10-07T05:01:13.896Z,10.01
2017-10-07T05:02:14.602Z,10.09
2017-10-07T05:03:15.325Z,10.16
2017-10-07T05:04:16.051Z,10.10
2017-10-07T05:05:16.761Z,10.02
2017-10-07T05:06:17.485Z,10.09
2017-10-07T05:07:18.195Z,10.02
2017-10-07T05:08:18.904Z,10.12
2017-10-07T05:09:19.613Z,10.12
2017-10-07T05:10:20.324Z,10.01
2017-10-07T05:11:21.034Z,10.02
2017-10-07T05:12:21.758Z,10.05
2017-10-07T05:13:22.483Z,10.02
2017-10-07T05:14:23.207Z,10.09
2017-10-07T05:15:23.931Z,10.04
2017-10-07T05:16:24.641Z,10.17
2017-10-07T05:17:25.356Z,10.05
2017-10-07T05:18:26.066Z,10.05
2017-10-07T05:19:26.769Z,10.13
2017-10-07T05:20:27.479Z,10.05
2017-10-07T05:21:28.190Z,10.05
2017-10-07T05:22:28.914Z,10.12
2017-10-07T05:23:29.639Z,10.09
2017-10-07T05:24:30.353Z,10.07
2017-10-07T05:25:31.060Z,10.10
2017-10-07T05:26:31.772Z,10.09
2017-10-07T05:27:32.497Z,10.13
2017-10-07T05:28:33.224Z,10.17
2017-10-07T05:29:33.935Z,10.10
2017-10-07T05:30:34.646Z,10.15
2017-10-07T05:31:35.358Z,10.12
2017-10-07T05:32:36.069Z,10.13
2017-10-07T05:33:36.783Z,10.22
2017-10-07T05:34:37.492Z,10.13
2017-10-07T05:35:38.204Z,10.12
2017-10-07T05:36:38.914Z,10.13
2017-10-07T05:37:39.642Z,10.17
2017-10-07T05:38:40.352Z,10.19
2017-10-07T05:39:41.061Z,10.19
2017-10-07T05:40:41.786Z,10.20
2017-10-07T05:41:42.501Z,10.12
2017-10-07T05:42:43.213Z,10.23
2017-10-07T05:43:43.943Z,10.13
2017-10-07T05:44:44.653Z,10.23
2017-10-07T05:45:45.365Z,10.17
2017-10-07T05:46:46.079Z,10.22
2017-10-07T05:47:46.793Z,10.26
2017-10-07T05:48:47.503Z,10.33
2017-10-07T05:49:48.216Z,10.26
2017-10-07T05:50:48.929Z,10.25
2017-10-07T05:51:49.640Z,10.22
2017-10-07T05:52:50.352Z,10.25
2017-10-07T05:53:51.066Z,10.25
2017-10-07T05:54:51.780Z,10.26
2017-10-07T05:55:52.493Z,10.23
2017-10-07T05:56:53.206Z,10.41
2017-10-07T05:57:53.922Z,10.34
2017-10-07T05:58:54.635Z,10.34
2017-10-07T05:59:55.349Z,10.35
2017-10-07T06:00:56.063Z,10.33
2017-10-07T06:01:56.777Z,10.37
2017-10-07T06:02:57.508Z,10.38
2017-10-07T06:03:58.219Z,10.37
2017-10-07T06:04:58.947Z,10.41
2017-10-07T06:05:59.663Z,10.41
2017-10-07T06:07:00.388Z,10.25
2017-10-07T06:08:01.101Z,10.40
2017-10-07T06:09:01.830Z,10.38
2017-10-07T06:10:02.559Z,10.40
2017-10-07T06:11:03.288Z,10.42
2017-10-07T06:12:04.003Z,10.41
2017-10-07T06:13:04.717Z,10.35
2017-10-07T06:14:05.509Z,10.44
2017-10-07T06:15:06.224Z,10.38
2017-10-07T06:16:06.938Z,10.42
2017-10-07T06:17:07.653Z,10.48
2017-10-07T06:18:08.368Z,10.44
2017-10-07T06:19:09.082Z,10.51
2017-10-07T06:20:09.810Z,10.46
2017-10-07T06:21:10.525Z,10.42
2017-10-07T06:22:11.240Z,10.44
2017-10-07T06:23:11.949Z,10.46
2017-10-07T06:24:12.660Z,10.51
2017-10-07T06:25:13.372Z,10.49
2017-10-07T06:26:14.087Z,10.53
2017-10-07T06:27:15.102Z,10.41
2017-10-07T06:28:15.815Z,10.46
2017-10-07T06:29:16.527Z,10.51
2017-10-07T06:30:17.241Z,10.48
2017-10-07T06:31:17.954Z,10.46
2017-10-07T06:32:18.669Z,10.48
2017-10-07T06:33:19.383Z,10.48
2017-10-07T06:34:20.100Z,10.56
2017-10-07T06:35:20.831Z,10.53
2017-10-07T06:36:21.547Z,10.59
2017-10-07T06:37:22.277Z,10.54
2017-10-07T06:38:22.993Z,10.57
2017-10-07T06:39:23.707Z,10.54
2017-10-07T06:40:24.423Z,10.60
2017-10-07T06:41:25.140Z,10.57
2017-10-07T06:42:25.857Z,10.60
2017-10-07T06:43:26.583Z,10.69
2017-10-07T06:44:27.299Z,10.68
2017-10-07T06:45:28.015Z,10.72
2017-10-07T06:46:28.731Z,10.60
2017-10-07T06:47:29.444Z,10.64
2017-10-07T06:48:30.158Z,10.64
2017-10-07T06:49:30.873Z,10.63
2017-10-07T06:50:31.589Z,10.76
2017-10-07T06:51:32.320Z,10.68
2017-10-07T06:52:33.037Z,10.63
2017-10-07T06:53:33.765Z,10.78
2017-10-07T06:54:34.482Z,10.67
2017-10-07T06:55:35.210Z,10.64
2017-10-07T06:56:35.926Z,10.76
2017-10-07T06:57:36.642Z,10.68
2017-10-07T06:58:37.372Z,10.78
2017-10-07T06:59:38.089Z,10.78
2017-10-07T07:00:38.803Z,10.75
2017-10-07T07:01:39.518Z,10.76
2017-10-07T07:02:40.248Z,10.78
2017-10-07T07:03:40.961Z,10.82
2017-10-07T07:04:41.676Z,10.72
2017-10-07T07:05:42.404Z,10.72
2017-10-07T07:06:43.119Z,10.74
2017-10-07T07:07:43.836Z,10.76
2017-10-07T07:08:44.551Z,10.71
2017-10-07T07:09:45.267Z,10.76
2017-10-07T07:10:45.982Z,10.72
2017-10-07T07:11:46.699Z,10.78
2017-10-07T07:12:47.415Z,10.75
2017-10-07T07:13:48.130Z,10.75
2017-10-07T07:14:48.847Z,10.75
2017-10-07T07:15:49.578Z,10.82
2017-10-07T07:16:50.306Z,10.84
2017-10-07T07:17:51.022Z,10.84
2017-10-07T07:18:51.736Z,10.74
2017-10-07T07:19:52.454Z,10.78
2017-10-07T07:20:53.183Z,10.82
2017-10-07T07:21:53.900Z,10.75
2017-10-07T07:22:54.614Z,10.74
2017-10-07T07:23:55.332Z,10.72
2017-10-07T07:24:56.059Z,10.72
2017-10-07T07:25:56.774Z,10.84
2017-10-07T07:26:57.489Z,10.75
2017-10-07T07:27:58.204Z,10.76
2017-10-07T07:28:58.936Z,10.84
2017-10-07T07:29:59.652Z,10.78
2017-10-07T07:31:00.369Z,10.79
2017-10-07T07:32:01.087Z,10.76
2017-10-07T07:33:01.803Z,10.81
2017-10-07T07:34:02.532Z,10.72
2017-10-07T07:35:03.262Z,10.86
2017-10-07T07:36:03.978Z,10.79
2017-10-07T07:37:04.698Z,10.82
2017-10-07T07:38:05.424Z,10.81
2017-10-07T07:39:06.140Z,10.78
2017-10-07T07:40:06.854Z,10.84
2017-10-07T07:41:07.568Z,10.87
2017-10-07T07:42:08.285Z,10.81
2017-10-07T07:43:09.002Z,10.93
2017-10-07T07:44:09.719Z,10.90
2017-10-07T07:45:10.439Z,10.92
2017-10-07T07:46:11.165Z,10.96
2017-10-07T07:47:11.879Z,10.90
2017-10-07T07:48:12.596Z,10.90
2017-10-07T07:49:13.317Z,10.93
2017-10-07T07:50:14.041Z,10.99
2017-10-07T07:51:14.775Z,11.11
2017-10-07T07:52:15.504Z,11.07
2017-10-07T07:53:16.220Z,11.14
2017-10-07T07:54:16.938Z,11.15
2017-10-07T07:55:17.654Z,11.18
2017-10-07T07:56:18.369Z,11.22
2017-10-07T07:57:19.087Z,11.27
2017-10-07T07:58:19.820Z,11.32
2017-10-07T07:59:20.536Z,11.30
2017-10-07T08:00:21.255Z,11.30
2017-10-07T08:01:21.971Z,11.29
2017-10-07T08:02:22.692Z,11.37
2017-10-07T08:03:23.406Z,11.37
2017-10-07T08:04:24.123Z,11.52
2017-10-07T08:05:24.852Z,11.52
2017-10-07T08:06:25.569Z,11.52
2017-10-07T08:07:26.289Z,11.68
2017-10-07T08:08:27.006Z,11.72
2017-10-07T08:09:27.723Z,11.75
2017-10-07T08:10:28.443Z,11.66
2017-10-07T08:11:29.159Z,11.73
2017-10-07T08:12:29.879Z,11.68
2017-10-07T08:13:30.609Z,11.70
2017-10-07T08:14:31.328Z,11.72
2017-10-07T08:15:32.046Z,11.66
2017-10-07T08:16:32.779Z,11.77
2017-10-07T08:17:33.541Z,11.80
2017-10-07T08:18:34.233Z,11.80
2017-10-07T08:19:34.966Z,11.95
2017-10-07T08:20:35.684Z,11.94
2017-10-07T08:21:36.406Z,11.95
2017-10-07T08:22:37.123Z,11.95
2017-10-07T08:23:37.841Z,12.04
2017-10-07T08:24:38.576Z,11.97
2017-10-07T08:25:39.295Z,11.84
2017-10-07T08:26:40.012Z,11.91
2017-10-07T08:27:40.730Z,12.03
2017-10-07T08:28:41.465Z,12.03
2017-10-07T08:29:42.197Z,12.04
2017-10-07T08:30:42.914Z,12.00
2017-10-07T08:31:43.647Z,11.90
2017-10-07T08:32:44.366Z,11.90
2017-10-07T08:33:45.084Z,11.99
2017-10-07T08:34:45.800Z,11.90
2017-10-07T08:35:46.519Z,11.83
2017-10-07T08:36:47.238Z,11.86
2017-10-07T08:37:47.970Z,11.86
2017-10-07T08:38:48.687Z,11.88
2017-10-07T08:39:49.419Z,11.90
2017-10-07T08:40:50.153Z,11.90
2017-10-07T08:41:50.872Z,11.90
2017-10-07T08:42:51.589Z,11.80
2017-10-07T08:43:52.312Z,11.78
2017-10-07T08:44:53.038Z,11.86
2017-10-07T08:45:53.756Z,11.88
2017-10-07T08:46:54.474Z,11.83
2017-10-07T08:47:55.192Z,11.86
2017-10-07T08:48:55.911Z,11.81
2017-10-07T08:49:56.640Z,11.83
2017-10-07T08:50:57.357Z,11.87
2017-10-07T08:51:58.089Z,11.77
2017-10-07T08:52:58.812Z,11.81
2017-10-07T08:53:59.524Z,11.86
2017-10-07T08:55:00.241Z,11.84
2017-10-07T08:56:00.976Z,11.87
2017-10-07T08:57:01.692Z,11.81
2017-10-07T08:58:02.410Z,11.90
2017-10-07T08:59:03.220Z,11.91
2017-10-07T09:00:03.939Z,11.94
2017-10-07T09:01:04.672Z,11.88
2017-10-07T09:02:05.388Z,11.88
2017-10-07T09:03:06.136Z,11.91
2017-10-07T09:04:06.851Z,11.91
2017-10-07T09:05:07.570Z,11.91
2017-10-07T09:06:08.287Z,11.91
2017-10-07T09:07:09.003Z,12.02
2017-10-07T09:08:09.720Z,11.91
2017-10-07T09:09:10.437Z,11.86
2017-10-07T09:10:11.164Z,11.80
2017-10-07T09:11:11.885Z,11.77
2017-10-07T09:12:12.601Z,11.69
2017-10-07T09:13:13.318Z,11.54
2017-10-07T09:14:14.035Z,11.45
2017-10-07T09:15:14.754Z,11.44
2017-10-07T09:16:15.471Z,11.37
2017-10-07T09:17:16.186Z,11.44
2017-10-07T09:18:16.916Z,11.41
2017-10-07T09:19:17.834Z,11.33
2017-10-07T09:20:18.555Z,11.40
2017-10-07T09:21:19.269Z,11.40
2017-10-07T09:22:19.984Z,11.36
2017-10-07T09:23:20.700Z,11.27
2017-10-07T09:24:21.431Z,11.41
2017-10-07T09:25:22.160Z,11.41
2017-10-07T09:26:22.878Z,11.35
2017-10-07T09:27:23.610Z,11.43
2017-10-07T09:28:24.327Z,11.41
2017-10-07T09:29:25.045Z,11.37
2017-10-07T09:30:25.758Z,11.50
2017-10-07T09:31:26.526Z,11.43
2017-10-07T09:32:27.242Z,11.44
2017-10-07T09:33:27.970Z,11.45
2017-10-07T09:34:28.687Z,11.52
2017-10-07T09:35:29.418Z,11.55
2017-10-07T09:36:30.136Z,11.57
2017-10-07T09:37:30.852Z,11.62
2017-10-07T09:38:31.596Z,11.62
2017-10-07T09:39:32.317Z,11.70
2017-10-07T09:40:33.035Z,11.66
2017-10-07T09:41:33.752Z,11.68
2017-10-07T09:42:34.469Z,11.66
2017-10-07T09:43:35.188Z,11.73
2017-10-07T09:44:35.905Z,11.70
2017-10-07T09:45:36.635Z,11.55
2017-10-07T09:46:37.354Z,11.68
2017-10-07T09:47:38.067Z,11.62
2017-10-07T09:48:38.800Z,11.52
2017-10-07T09:49:39.514Z,11.57
2017-10-07T09:50:40.232Z,11.57
2017-10-07T09:51:40.947Z,11.59
2017-10-07T09:52:41.664Z,11.70
2017-10-07T09:53:42.382Z,11.63
2017-10-07T09:54:43.097Z,11.65
2017-10-07T09:55:43.814Z,11.66
2017-10-07T09:56:44.534Z,11.70
2017-10-07T09:57:45.251Z,11.70
2017-10-07T09:58:45.968Z,11.69
2017-10-07T09:59:46.685Z,11.72
2017-10-07T10:00:47.400Z,11.70
2017-10-07T10:01:48.116Z,11.75
2017-10-07T10:02:48.832Z,11.66
2017-10-07T10:03:49.549Z,11.72
2017-10-07T10:04:50.264Z,11.72
2017-10-07T10:05:50.982Z,11.70
2017-10-07T10:06:51.698Z,11.75
2017-10-07T10:07:52.415Z,11.69
2017-10-07T10:08:53.150Z,11.70
2017-10-07T10:09:53.880Z,11.66
2017-10-07T10:10:54.598Z,11.78
2017-10-07T10:11:55.327Z,11.80
2017-10-07T10:12:56.042Z,11.80
2017-10-07T10:13:56.765Z,11.72
2017-10-07T10:14:57.491Z,11.78
2017-10-07T10:15:58.206Z,11.78
2017-10-07T10:16:58.937Z,11.73
2017-10-07T10:17:59.654Z,11.77
2017-10-07T10:19:00.372Z,11.70
2017-10-07T10:20:01.103Z,11.77
2017-10-07T10:21:01.838Z,11.72
2017-10-07T10:22:02.550Z,11.80
2017-10-07T10:23:03.269Z,11.90
2017-10-07T10:24:03.984Z,11.86
2017-10-07T10:25:04.701Z,11.83
2017-10-07T10:26:05.417Z,11.83
2017-10-07T10:27:06.135Z,11.90
2017-10-07T10:28:06.852Z,11.91
2017-10-07T10:29:07.575Z,12.00
2017-10-07T10:30:08.299Z,11.99
2017-10-07T10:31:09.013Z,12.02
2017-10-07T10:32:09.744Z,12.00
2017-10-07T10:33:10.463Z,12.00
2017-10-07T10:34:11.179Z,12.00
2017-10-07T10:35:11.896Z,12.00
2017-10-07T10:36:12.611Z,11.94
2017-10-07T10:37:13.326Z,12.00
2017-10-07T10:38:14.043Z,11.95
2017-10-07T10:39:14.775Z,12.02
2017-10-07T10:40:15.492Z,12.03
2017-10-07T10:41:16.224Z,11.94
2017-10-07T10:42:16.937Z,11.91
2017-10-07T10:43:17.653Z,11.78
2017-10-07T10:44:18.381Z,11.80
2017-10-07T10:45:19.096Z,11.78
2017-10-07T10:46:19.813Z,11.77
2017-10-07T10:47:20.542Z,11.70
2017-10-07T10:48:21.282Z,11.72
2017-10-07T10:49:21.975Z,11.51
2017-10-07T10:50:22.692Z,11.50
2017-10-07T10:51:23.406Z,11.45
2017-10-07T10:52:24.120Z,11.30
2017-10-07T10:53:24.844Z,11.33
2017-10-07T10:54:25.551Z,11.37
2017-10-07T10:55:26.265Z,11.25
2017-10-07T10:56:26.982Z,11.19
2017-10-07T10:57:27.697Z,11.30
2017-10-07T10:58:28.425Z,11.30
2017-10-07T10:59:29.141Z,11.27
2017-10-07T11:00:29.858Z,11.33
2017-10-07T11:01:30.577Z,11.30
2017-10-07T11:02:31.302Z,11.32
2017-10-07T11:03:32.017Z,11.27
2017-10-07T11:04:32.734Z,11.35
2017-10-07T11:05:33.449Z,11.25
2017-10-07T11:06:34.166Z,11.26
2017-10-07T11:07:34.882Z,11.19
2017-10-07T11:08:35.613Z,11.18
2017-10-07T11:09:36.329Z,11.22
2017-10-07T11:10:37.046Z,11.22
2017-10-07T11:11:37.760Z,11.19
2017-10-07T11:12:38.473Z,11.04
2017-10-07T11:13:39.187Z,11.08
2017-10-07T11:14:39.903Z,11.02
2017-10-07T11:15:40.620Z,10.84
2017-10-07T11:16:41.333Z,10.89
2017-10-07T11:17:42.050Z,10.87
2017-10-07T11:18:42.764Z,10.82
2017-10-07T11:19:43.480Z,10.84
2017-10-07T11:20:44.210Z,10.75
2017-10-07T11:21:44.927Z,10.72
2017-10-07T11:22:45.640Z,10.69
2017-10-07T11:23:46.356Z,10.72
2017-10-07T11:24:47.072Z,10.69
2017-10-07T11:25:47.787Z,10.67
2017-10-07T11:26:48.501Z,10.71
2017-10-07T11:27:49.218Z,10.59
2017-10-07T11:28:49.929Z,10.61
2017-10-07T11:29:50.643Z,10.49
2017-10-07T11:30:51.357Z,10.56
2017-10-07T11:31:52.084Z,10.57
2017-10-07T11:32:52.797Z,10.46
2017-10-07T11:33:53.513Z,10.48
2017-10-07T11:34:54.225Z,10.56
2017-10-07T11:35:54.939Z,10.48
2017-10-07T11:36:55.667Z,10.44
2017-10-07T11:37:56.394Z,10.42
2017-10-07T11:38:57.108Z,10.48
2017-10-07T11:39:57.839Z,10.48
2017-10-07T11:40:58.552Z,10.46
2017-10-07T11:41:59.283Z,10.48
2017-10-07T11:42:59.997Z,10.42
2017-10-07T11:44:00.710Z,10.57
2017-10-07T11:45:01.424Z,10.44
2017-10-07T11:46:02.140Z,10.60
2017-10-07T11:47:02.854Z,10.54
2017-10-07T11:48:03.582Z,10.60
2017-10-07T11:49:04.297Z,10.53
2017-10-07T11:50:05.011Z,10.59
2017-10-07T11:51:05.728Z,10.61
2017-10-07T11:52:06.445Z,10.56
2017-10-07T11:53:07.162Z,10.53
2017-10-07T11:54:07.891Z,10.49
2017-10-07T11:55:08.604Z,10.57
2017-10-07T11:56:09.322Z,10.60
2017-10-07T11:57:10.036Z,10.60
2017-10-07T11:58:10.751Z,10.54
2017-10-07T11:59:11.467Z,10.59
2017-10-07T12:00:12.181Z,10.54
2017-10-07T12:01:12.897Z,10.53
2017-10-07T12:02:13.611Z,10.53
2017-10-07T12:03:14.327Z,10.57
2017-10-07T12:04:15.040Z,10.53
2017-10-07T12:05:15.756Z,10.49
2017-10-07T12:06:16.471Z,10.49
2017-10-07T12:07:17.187Z,10.59
2017-10-07T12:08:17.908Z,10.59
2017-10-07T12:09:18.630Z,10.60
2017-10-07T12:10:19.344Z,10.59
2017-10-07T12:11:20.059Z,10.54
2017-10-07T12:12:20.776Z,10.57
2017-10-07T12:13:21.493Z,10.60
2017-10-07T12:14:22.223Z,10.57
2017-10-07T12:15:22.942Z,10.63
2017-10-07T12:16:23.653Z,10.51
2017-10-07T12:17:24.369Z,10.59
2017-10-07T12:18:25.085Z,10.59
2017-10-07T12:19:25.802Z,10.54
2017-10-07T12:20:26.515Z,10.57
2017-10-07T12:21:27.232Z,10.59
2017-10-07T12:22:27.947Z,10.57
2017-10-07T12:23:28.662Z,10.56
2017-10-07T12:24:29.400Z,10.59
2017-10-07T12:25:30.111Z,10.60
2017-10-07T12:26:30.827Z,10.53
2017-10-07T12:27:31.543Z,10.49
2017-10-07T12:28:32.273Z,10.57
2017-10-07T12:29:33.002Z,10.54
2017-10-07T12:30:33.718Z,10.54
2017-10-07T12:31:34.435Z,10.60
2017-10-07T12:32:35.152Z,10.54
2017-10-07T12:33:35.866Z,10.54
2017-10-07T12:34:36.582Z,10.54
2017-10-07T12:35:37.297Z,10.54
2017-10-07T12:36:38.029Z,10.75
2017-10-07T12:37:38.742Z,10.63
2017-10-07T12:38:39.455Z,10.68
2017-10-07T12:39:40.169Z,10.59
2017-10-07T12:40:40.886Z,10.64
2017-10-07T12:41:41.600Z,10.64
2017-10-07T12:42:42.316Z,10.60
2017-10-07T12:43:43.028Z,10.60
2017-10-07T12:44:43.742Z,10.69
2017-10-07T12:45:44.470Z,10.64
2017-10-07T12:46:45.186Z,10.63
2017-10-07T12:47:45.904Z,10.72
2017-10-07T12:48:46.618Z,10.68
2017-10-07T12:49:47.345Z,10.67
2017-10-07T12:50:48.076Z,10.68
2017-10-07T12:51:48.804Z,10.71
2017-10-07T12:52:49.523Z,10.64
2017-10-07T12:53:50.252Z,10.64
2017-10-07T12:54:50.967Z,10.71
2017-10-07T12:55:51.698Z,10.69
2017-10-07T12:56:52.413Z,10.71
2017-10-07T12:57:53.130Z,10.68
2017-10-07T12:58:53.848Z,10.78
2017-10-07T12:59:54.561Z,10.67
2017-10-07T13:00:55.293Z,10.78
2017-10-07T13:01:56.008Z,10.78